METAR Data

Data at: 1149 UTC 24 May 2022

METAR for:CYCX (Gagetown (MIL), NB, CA)
Text:CYCX 241100Z 04004KT 15SM FEW200 08/02 A3036 RMK CI1 DENSITY ALT -1041FT SLP281
Temperature: 8.0°C ( 46°F)
Dewpoint: 2.0°C ( 36°F) [RH = 66%]
Pressure (altimeter):30.36 inches Hg (1028.2 mb) [Sea level pressure: 1028.1 mb]
Winds:from the NE (40 degrees) at 5 MPH (4 knots; 2.1 m/s)
Visibility: 15 sm ( 24 km)
Ceiling:at least 12,000 feet AGL
Clouds: few clouds at 20000 feet AGL